sensor_id;sensor_type;location;lat;lon;timestamp;temperature;humidity
16243;DHT22;11719;51.052;6.982;2023-06-14T00:00:51;21.90;97.40
16243;DHT22;11719;51.052;6.982;2023-06-14T00:03:18;21.80;98.10
16243;DHT22;11719;51.052;6.982;2023-06-14T00:05:47;21.80;98.80
16243;DHT22;11719;51.052;6.982;2023-06-14T00:08:14;21.90;98.10
16243;DHT22;11719;51.052;6.982;2023-06-14T00:10:40;21.80;97.50
16243;DHT22;11719;51.052;6.982;2023-06-14T00:13:08;21.80;98.20
16243;DHT22;11719;51.052;6.982;2023-06-14T00:15:34;21.80;98.80
16243;DHT22;11719;51.052;6.982;2023-06-14T00:18:01;21.90;98.30
16243;DHT22;11719;51.052;6.982;2023-06-14T00:20:28;21.80;96.70
16243;DHT22;11719;51.052;6.982;2023-06-14T00:22:56;21.80;95.70
16243;DHT22;11719;51.052;6.982;2023-06-14T00:25:23;21.80;96.80
16243;DHT22;11719;51.052;6.982;2023-06-14T00:27:51;21.80;96.20
16243;DHT22;11719;51.052;6.982;2023-06-14T00:30:17;21.70;97.00
16243;DHT22;11719;51.052;6.982;2023-06-14T00:32:44;21.80;97.20
16243;DHT22;11719;51.052;6.982;2023-06-14T00:35:11;21.70;97.40
16243;DHT22;11719;51.052;6.982;2023-06-14T00:37:37;21.70;95.60
16243;DHT22;11719;51.052;6.982;2023-06-14T00:40:04;21.60;96.80
16243;DHT22;11719;51.052;6.982;2023-06-14T00:42:30;21.60;97.50
16243;DHT22;11719;51.052;6.982;2023-06-14T00:44:57;21.60;97.90
16243;DHT22;11719;51.052;6.982;2023-06-14T00:47:23;21.60;98.40
16243;DHT22;11719;51.052;6.982;2023-06-14T00:49:53;21.60;98.60
16243;DHT22;11719;51.052;6.982;2023-06-14T00:52:19;21.60;96.30
16243;DHT22;11719;51.052;6.982;2023-06-14T00:54:46;21.60;96.10
16243;DHT22;11719;51.052;6.982;2023-06-14T00:57:12;21.60;96.10
16243;DHT22;11719;51.052;6.982;2023-06-14T00:59:43;21.50;98.50
16243;DHT22;11719;51.052;6.982;2023-06-14T01:02:10;21.50;98.20
16243;DHT22;11719;51.052;6.982;2023-06-14T01:04:37;21.40;97.50
16243;DHT22;11719;51.052;6.982;2023-06-14T01:07:12;21.40;98.30
16243;DHT22;11719;51.052;6.982;2023-06-14T01:13:23;21.30;97.70
16243;DHT22;11719;51.052;6.982;2023-06-14T01:15:31;21.30;97.00
16243;DHT22;11719;51.052;6.982;2023-06-14T01:17:57;21.30;96.90
16243;DHT22;11719;51.052;6.982;2023-06-14T01:20:32;21.30;97.20
16243;DHT22;11719;51.052;6.982;2023-06-14T01:22:59;21.30;97.60
16243;DHT22;11719;51.052;6.982;2023-06-14T01:25:25;21.30;99.10
16243;DHT22;11719;51.052;6.982;2023-06-14T01:28:00;21.30;98.20
16243;DHT22;11719;51.052;6.982;2023-06-14T01:30:37;21.30;97.40
16243;DHT22;11719;51.052;6.982;2023-06-14T01:33:05;21.20;96.70
16243;DHT22;11719;51.052;6.982;2023-06-14T01:35:31;21.10;96.80
16243;DHT22;11719;51.052;6.982;2023-06-14T01:37:57;21.00;97.00
16243;DHT22;11719;51.052;6.982;2023-06-14T01:40:24;21.10;98.10
16243;DHT22;11719;51.052;6.982;2023-06-14T01:42:50;21.00;97.20
16243;DHT22;11719;51.052;6.982;2023-06-14T01:45:18;20.90;97.70
16243;DHT22;11719;51.052;6.982;2023-06-14T01:47:45;20.90;97.30
16243;DHT22;11719;51.052;6.982;2023-06-14T01:50:11;20.90;97.50
16243;DHT22;11719;51.052;6.982;2023-06-14T01:52:37;21.00;99.60
16243;DHT22;11719;51.052;6.982;2023-06-14T01:55:07;21.00;99.90
16243;DHT22;11719;51.052;6.982;2023-06-14T01:57:33;21.00;99.10
16243;DHT22;11719;51.052;6.982;2023-06-14T01:59:59;21.00;98.10
16243;DHT22;11719;51.052;6.982;2023-06-14T02:02:25;20.90;98.90
16243;DHT22;11719;51.052;6.982;2023-06-14T02:04:50;20.90;99.90
16243;DHT22;11719;51.052;6.982;2023-06-14T02:07:17;20.90;99.10
16243;DHT22;11719;51.052;6.982;2023-06-14T02:09:43;20.90;99.40
16243;DHT22;11719;51.052;6.982;2023-06-14T02:12:09;21.00;99.90
16243;DHT22;11719;51.052;6.982;2023-06-14T02:14:36;21.00;97.90
16243;DHT22;11719;51.052;6.982;2023-06-14T02:17:02;21.00;97.60
16243;DHT22;11719;51.052;6.982;2023-06-14T02:19:27;21.00;97.20
16243;DHT22;11719;51.052;6.982;2023-06-14T02:21:53;21.00;99.40
16243;DHT22;11719;51.052;6.982;2023-06-14T02:24:19;21.00;97.60
16243;DHT22;11719;51.052;6.982;2023-06-14T02:26:45;21.00;98.40
16243;DHT22;11719;51.052;6.982;2023-06-14T02:29:11;21.00;99.60
16243;DHT22;11719;51.052;6.982;2023-06-14T02:31:40;21.00;97.40
16243;DHT22;11719;51.052;6.982;2023-06-14T02:34:06;21.00;97.80
16243;DHT22;11719;51.052;6.982;2023-06-14T02:36:34;20.90;98.60
16243;DHT22;11719;51.052;6.982;2023-06-14T02:39:00;20.90;99.90
16243;DHT22;11719;51.052;6.982;2023-06-14T02:41:26;21.00;99.90
16243;DHT22;11719;51.052;6.982;2023-06-14T02:43:53;21.00;98.70
16243;DHT22;11719;51.052;6.982;2023-06-14T02:46:19;21.00;97.40
16243;DHT22;11719;51.052;6.982;2023-06-14T02:48:44;21.00;98.10
16243;DHT22;11719;51.052;6.982;2023-06-14T02:51:10;20.90;96.90
16243;DHT22;11719;51.052;6.982;2023-06-14T02:53:37;20.80;99.90
16243;DHT22;11719;51.052;6.982;2023-06-14T02:56:03;20.90;99.90
16243;DHT22;11719;51.052;6.982;2023-06-14T02:58:30;21.00;99.90
16243;DHT22;11719;51.052;6.982;2023-06-14T03:00:56;21.00;99.90
16243;DHT22;11719;51.052;6.982;2023-06-14T03:03:22;21.00;98.50
16243;DHT22;11719;51.052;6.982;2023-06-14T03:05:50;20.90;96.70
16243;DHT22;11719;51.052;6.982;2023-06-14T03:08:16;20.90;99.90
16243;DHT22;11719;51.052;6.982;2023-06-14T03:10:45;20.90;99.90
16243;DHT22;11719;51.052;6.982;2023-06-14T03:13:12;20.90;99.50
16243;DHT22;11719;51.052;6.982;2023-06-14T03:18:14;21.00;99.90
16243;DHT22;11719;51.052;6.982;2023-06-14T03:20:41;21.00;99.90
16243;DHT22;11719;51.052;6.982;2023-06-14T03:23:08;21.00;99.30
16243;DHT22;11719;51.052;6.982;2023-06-14T03:25:34;21.00;99.90
16243;DHT22;11719;51.052;6.982;2023-06-14T03:28:06;21.10;99.90
16243;DHT22;11719;51.052;6.982;2023-06-14T03:30:32;21.00;97.90
16243;DHT22;11719;51.052;6.982;2023-06-14T03:32:58;20.90;99.00
16243;DHT22;11719;51.052;6.982;2023-06-14T03:35:26;20.90;99.40
16243;DHT22;11719;51.052;6.982;2023-06-14T03:37:53;20.80;99.90
16243;DHT22;11719;51.052;6.982;2023-06-14T03:40:19;20.70;97.60
16243;DHT22;11719;51.052;6.982;2023-06-14T03:42:45;20.70;97.70
16243;DHT22;11719;51.052;6.982;2023-06-14T03:45:11;20.70;99.30
16243;DHT22;11719;51.052;6.982;2023-06-14T03:47:37;20.60;99.90
16243;DHT22;11719;51.052;6.982;2023-06-14T03:50:03;20.60;97.60
16243;DHT22;11719;51.052;6.982;2023-06-14T03:52:30;20.60;99.90
16243;DHT22;11719;51.052;6.982;2023-06-14T03:54:56;20.60;99.60
16243;DHT22;11719;51.052;6.982;2023-06-14T03:57:23;20.60;99.90
16243;DHT22;11719;51.052;6.982;2023-06-14T03:59:49;20.60;99.90
16243;DHT22;11719;51.052;6.982;2023-06-14T04:02:16;20.60;99.90
16243;DHT22;11719;51.052;6.982;2023-06-14T04:04:43;20.60;99.90
16243;DHT22;11719;51.052;6.982;2023-06-14T04:07:14;20.60;99.90
16243;DHT22;11719;51.052;6.982;2023-06-14T04:09:45;20.70;99.90
16243;DHT22;11719;51.052;6.982;2023-06-14T04:12:11;20.60;99.90
16243;DHT22;11719;51.052;6.982;2023-06-14T04:14:38;20.60;99.90
16243;DHT22;11719;51.052;6.982;2023-06-14T04:17:05;20.50;99.30
16243;DHT22;11719;51.052;6.982;2023-06-14T04:19:31;20.60;99.90
16243;DHT22;11719;51.052;6.982;2023-06-14T04:21:56;20.70;99.20
16243;DHT22;11719;51.052;6.982;2023-06-14T04:24:24;20.60;99.90
16243;DHT22;11719;51.052;6.982;2023-06-14T04:26:58;20.70;99.60
16243;DHT22;11719;51.052;6.982;2023-06-14T04:29:24;20.50;98.70
16243;DHT22;11719;51.052;6.982;2023-06-14T04:31:54;20.50;98.90
16243;DHT22;11719;51.052;6.982;2023-06-14T04:34:20;20.40;98.90
16243;DHT22;11719;51.052;6.982;2023-06-14T04:36:47;20.20;99.00
16243;DHT22;11719;51.052;6.982;2023-06-14T04:39:22;20.30;99.90
16243;DHT22;11719;51.052;6.982;2023-06-14T04:41:48;20.40;99.90
16243;DHT22;11719;51.052;6.982;2023-06-14T04:44:18;20.50;99.90
16243;DHT22;11719;51.052;6.982;2023-06-14T04:46:45;20.50;99.90
16243;DHT22;11719;51.052;6.982;2023-06-14T04:49:13;20.60;99.90
16243;DHT22;11719;51.052;6.982;2023-06-14T04:51:44;20.60;99.90
16243;DHT22;11719;51.052;6.982;2023-06-14T04:54:11;20.70;99.90
16243;DHT22;11719;51.052;6.982;2023-06-14T04:56:43;20.80;99.90
16243;DHT22;11719;51.052;6.982;2023-06-14T04:59:09;20.80;99.90
16243;DHT22;11719;51.052;6.982;2023-06-14T05:01:37;20.80;99.90
16243;DHT22;11719;51.052;6.982;2023-06-14T05:04:03;20.80;99.90
16243;DHT22;11719;51.052;6.982;2023-06-14T05:06:30;20.80;99.90
16243;DHT22;11719;51.052;6.982;2023-06-14T05:08:56;20.70;99.90
16243;DHT22;11719;51.052;6.982;2023-06-14T05:11:22;20.60;99.90
16243;DHT22;11719;51.052;6.982;2023-06-14T05:13:52;20.60;99.90
16243;DHT22;11719;51.052;6.982;2023-06-14T05:16:18;20.60;99.90
16243;DHT22;11719;51.052;6.982;2023-06-14T05:18:45;20.60;99.90
16243;DHT22;11719;51.052;6.982;2023-06-14T05:21:12;20.70;99.90
16243;DHT22;11719;51.052;6.982;2023-06-14T05:23:38;20.70;99.90
16243;DHT22;11719;51.052;6.982;2023-06-14T05:26:04;20.70;99.90
16243;DHT22;11719;51.052;6.982;2023-06-14T05:28:31;20.70;99.90
16243;DHT22;11719;51.052;6.982;2023-06-14T05:30:57;20.70;99.90
16243;DHT22;11719;51.052;6.982;2023-06-14T05:33:23;20.80;99.90
16243;DHT22;11719;51.052;6.982;2023-06-14T05:35:49;20.90;99.90
16243;DHT22;11719;51.052;6.982;2023-06-14T05:38:15;21.00;99.90
16243;DHT22;11719;51.052;6.982;2023-06-14T05:40:41;21.10;99.90
16243;DHT22;11719;51.052;6.982;2023-06-14T05:43:06;21.10;99.90
16243;DHT22;11719;51.052;6.982;2023-06-14T05:45:32;21.20;99.90
16243;DHT22;11719;51.052;6.982;2023-06-14T05:47:58;21.30;99.90
16243;DHT22;11719;51.052;6.982;2023-06-14T05:50:24;21.30;99.90
16243;DHT22;11719;51.052;6.982;2023-06-14T05:52:50;21.40;99.90
16243;DHT22;11719;51.052;6.982;2023-06-14T05:55:16;21.40;99.90
16243;DHT22;11719;51.052;6.982;2023-06-14T05:57:42;21.40;99.90
16243;DHT22;11719;51.052;6.982;2023-06-14T06:00:08;21.50;99.90
16243;DHT22;11719;51.052;6.982;2023-06-14T06:02:40;21.50;99.90
16243;DHT22;11719;51.052;6.982;2023-06-14T06:05:09;21.50;99.90
16243;DHT22;11719;51.052;6.982;2023-06-14T06:07:38;21.50;99.90
16243;DHT22;11719;51.052;6.982;2023-06-14T06:10:09;21.50;99.90
16243;DHT22;11719;51.052;6.982;2023-06-14T06:12:36;21.40;99.90
16243;DHT22;11719;51.052;6.982;2023-06-14T06:15:01;21.50;99.90
16243;DHT22;11719;51.052;6.982;2023-06-14T06:17:28;21.40;99.90
16243;DHT22;11719;51.052;6.982;2023-06-14T06:19:54;21.40;99.90
16243;DHT22;11719;51.052;6.982;2023-06-14T06:22:20;21.40;99.90
16243;DHT22;11719;51.052;6.982;2023-06-14T06:24:45;21.30;99.90
16243;DHT22;11719;51.052;6.982;2023-06-14T06:27:12;21.40;99.90
16243;DHT22;11719;51.052;6.982;2023-06-14T06:29:38;21.40;99.90
16243;DHT22;11719;51.052;6.982;2023-06-14T06:32:04;21.40;99.90
16243;DHT22;11719;51.052;6.982;2023-06-14T06:34:30;21.40;99.90
16243;DHT22;11719;51.052;6.982;2023-06-14T06:36:56;21.40;99.90
16243;DHT22;11719;51.052;6.982;2023-06-14T06:39:22;21.40;99.90
16243;DHT22;11719;51.052;6.982;2023-06-14T06:41:48;21.40;99.90
16243;DHT22;11719;51.052;6.982;2023-06-14T06:44:13;21.40;99.90
16243;DHT22;11719;51.052;6.982;2023-06-14T06:46:39;21.40;99.90
16243;DHT22;11719;51.052;6.982;2023-06-14T06:49:07;21.40;99.90
16243;DHT22;11719;51.052;6.982;2023-06-14T06:51:33;21.40;99.90
16243;DHT22;11719;51.052;6.982;2023-06-14T06:53:59;21.40;99.90
16243;DHT22;11719;51.052;6.982;2023-06-14T06:56:25;21.40;99.90
16243;DHT22;11719;51.052;6.982;2023-06-14T06:58:52;21.30;99.90
16243;DHT22;11719;51.052;6.982;2023-06-14T07:01:18;21.30;99.90
16243;DHT22;11719;51.052;6.982;2023-06-14T07:03:47;21.30;99.90
16243;DHT22;11719;51.052;6.982;2023-06-14T07:06:13;21.30;99.90
16243;DHT22;11719;51.052;6.982;2023-06-14T07:08:38;21.30;99.90
16243;DHT22;11719;51.052;6.982;2023-06-14T07:11:05;21.30;99.90
16243;DHT22;11719;51.052;6.982;2023-06-14T07:13:31;21.30;99.90
16243;DHT22;11719;51.052;6.982;2023-06-14T07:15:58;21.30;99.90
16243;DHT22;11719;51.052;6.982;2023-06-14T07:18:28;21.30;99.90
16243;DHT22;11719;51.052;6.982;2023-06-14T07:20:54;21.30;99.90
16243;DHT22;11719;51.052;6.982;2023-06-14T07:23:20;21.20;99.90
16243;DHT22;11719;51.052;6.982;2023-06-14T07:25:46;21.20;99.90
16243;DHT22;11719;51.052;6.982;2023-06-14T07:28:12;21.30;99.90
16243;DHT22;11719;51.052;6.982;2023-06-14T07:30:38;21.30;99.80
16243;DHT22;11719;51.052;6.982;2023-06-14T07:33:04;21.30;99.90
16243;DHT22;11719;51.052;6.982;2023-06-14T07:35:29;21.30;99.90
16243;DHT22;11719;51.052;6.982;2023-06-14T07:37:55;21.20;99.90
16243;DHT22;11719;51.052;6.982;2023-06-14T07:40:21;21.10;99.80
16243;DHT22;11719;51.052;6.982;2023-06-14T07:42:47;21.10;99.80
16243;DHT22;11719;51.052;6.982;2023-06-14T07:45:14;21.10;99.70
16243;DHT22;11719;51.052;6.982;2023-06-14T07:47:40;21.10;99.40
16243;DHT22;11719;51.052;6.982;2023-06-14T07:50:06;21.20;99.20
16243;DHT22;11719;51.052;6.982;2023-06-14T07:52:32;21.20;99.50
16243;DHT22;11719;51.052;6.982;2023-06-14T07:54:57;21.20;99.50
16243;DHT22;11719;51.052;6.982;2023-06-14T07:57:23;21.30;99.20
16243;DHT22;11719;51.052;6.982;2023-06-14T07:59:49;21.20;99.50
16243;DHT22;11719;51.052;6.982;2023-06-14T08:02:16;21.20;99.20
16243;DHT22;11719;51.052;6.982;2023-06-14T08:04:42;21.20;99.30
16243;DHT22;11719;51.052;6.982;2023-06-14T08:07:08;21.20;99.20
16243;DHT22;11719;51.052;6.982;2023-06-14T08:09:34;21.20;99.00
16243;DHT22;11719;51.052;6.982;2023-06-14T08:12:03;21.10;99.50
16243;DHT22;11719;51.052;6.982;2023-06-14T08:14:33;21.20;99.20
16243;DHT22;11719;51.052;6.982;2023-06-14T08:16:59;21.30;98.90
16243;DHT22;11719;51.052;6.982;2023-06-14T08:19:25;21.10;98.90
16243;DHT22;11719;51.052;6.982;2023-06-14T08:21:51;21.20;98.70
16243;DHT22;11719;51.052;6.982;2023-06-14T08:24:17;21.20;98.80
16243;DHT22;11719;51.052;6.982;2023-06-14T08:26:44;21.20;98.70
16243;DHT22;11719;51.052;6.982;2023-06-14T08:29:10;21.20;98.60
16243;DHT22;11719;51.052;6.982;2023-06-14T08:31:35;21.30;98.50
16243;DHT22;11719;51.052;6.982;2023-06-14T08:34:01;21.20;98.80
16243;DHT22;11719;51.052;6.982;2023-06-14T08:36:27;21.10;98.50
16243;DHT22;11719;51.052;6.982;2023-06-14T08:38:53;21.10;98.30
16243;DHT22;11719;51.052;6.982;2023-06-14T08:41:22;21.20;98.20
16243;DHT22;11719;51.052;6.982;2023-06-14T08:43:50;21.20;98.70
16243;DHT22;11719;51.052;6.982;2023-06-14T08:46:18;21.20;98.40
16243;DHT22;11719;51.052;6.982;2023-06-14T08:48:51;21.30;95.40
16243;DHT22;11719;51.052;6.982;2023-06-14T08:51:22;21.30;98.50
16243;DHT22;11719;51.052;6.982;2023-06-14T08:53:53;21.30;98.50
16243;DHT22;11719;51.052;6.982;2023-06-14T08:56:26;21.20;98.80
16243;DHT22;11719;51.052;6.982;2023-06-14T08:58:53;21.20;97.80
16243;DHT22;11719;51.052;6.982;2023-06-14T09:01:20;21.30;94.10
16243;DHT22;11719;51.052;6.982;2023-06-14T09:03:48;21.30;98.20
16243;DHT22;11719;51.052;6.982;2023-06-14T09:06:14;21.20;98.40
16243;DHT22;11719;51.052;6.982;2023-06-14T09:08:44;21.10;98.00
16243;DHT22;11719;51.052;6.982;2023-06-14T09:11:17;21.20;97.80
16243;DHT22;11719;51.052;6.982;2023-06-14T09:13:45;21.40;90.20
16243;DHT22;11719;51.052;6.982;2023-06-14T09:16:12;21.40;96.90
16243;DHT22;11719;51.052;6.982;2023-06-14T09:18:42;21.50;96.80
16243;DHT22;11719;51.052;6.982;2023-06-14T09:21:11;21.50;97.80
16243;DHT22;11719;51.052;6.982;2023-06-14T09:23:38;21.50;97.30
16243;DHT22;11719;51.052;6.982;2023-06-14T09:26:14;21.50;97.60
16243;DHT22;11719;51.052;6.982;2023-06-14T09:28:46;21.50;98.00
16243;DHT22;11719;51.052;6.982;2023-06-14T09:31:14;21.40;98.00
16243;DHT22;11719;51.052;6.982;2023-06-14T09:33:45;21.40;98.00
16243;DHT22;11719;51.052;6.982;2023-06-14T09:36:26;21.40;98.10
16243;DHT22;11719;51.052;6.982;2023-06-14T09:38:59;21.60;92.50
16243;DHT22;11719;51.052;6.982;2023-06-14T09:41:35;21.80;94.20
16243;DHT22;11719;51.052;6.982;2023-06-14T09:44:03;21.90;94.90
16243;DHT22;11719;51.052;6.982;2023-06-14T09:46:31;21.90;95.90
16243;DHT22;11719;51.052;6.982;2023-06-14T09:49:01;21.70;97.20
16243;DHT22;11719;51.052;6.982;2023-06-14T09:51:28;21.70;96.00
16243;DHT22;11719;51.052;6.982;2023-06-14T09:53:59;21.80;96.30
16243;DHT22;11719;51.052;6.982;2023-06-14T09:56:35;21.90;96.40
16243;DHT22;11719;51.052;6.982;2023-06-14T09:59:05;21.80;96.80
16243;DHT22;11719;51.052;6.982;2023-06-14T10:01:34;22.00;94.00
16243;DHT22;11719;51.052;6.982;2023-06-14T10:04:06;22.10;95.30
16243;DHT22;11719;51.052;6.982;2023-06-14T10:06:35;22.10;94.10
16243;DHT22;11719;51.052;6.982;2023-06-14T10:09:03;22.10;93.90
16243;DHT22;11719;51.052;6.982;2023-06-14T10:11:31;22.00;96.50
16243;DHT22;11719;51.052;6.982;2023-06-14T10:13:58;21.90;96.50
16243;DHT22;11719;51.052;6.982;2023-06-14T10:16:50;21.80;97.00
16243;DHT22;11719;51.052;6.982;2023-06-14T10:20:03;22.10;95.30
16243;DHT22;11719;51.052;6.982;2023-06-14T10:22:47;22.20;94.60
16243;DHT22;11719;51.052;6.982;2023-06-14T10:25:29;22.30;95.70
16243;DHT22;11719;51.052;6.982;2023-06-14T10:28:19;22.00;96.30
16243;DHT22;11719;51.052;6.982;2023-06-14T10:31:10;21.80;97.00
16243;DHT22;11719;51.052;6.982;2023-06-14T10:33:48;21.80;95.60
16243;DHT22;11719;51.052;6.982;2023-06-14T10:36:31;21.90;96.60
16243;DHT22;11719;51.052;6.982;2023-06-14T10:39:06;21.80;97.50
16243;DHT22;11719;51.052;6.982;2023-06-14T10:41:38;21.80;97.60
16243;DHT22;11719;51.052;6.982;2023-06-14T10:46:40;21.50;98.00
16243;DHT22;11719;51.052;6.982;2023-06-14T10:49:06;21.80;96.50
16243;DHT22;11719;51.052;6.982;2023-06-14T10:51:41;21.90;97.10
16243;DHT22;11719;51.052;6.982;2023-06-14T10:54:24;21.90;97.20
16243;DHT22;11719;51.052;6.982;2023-06-14T10:56:53;21.60;98.00
16243;DHT22;11719;51.052;6.982;2023-06-14T10:59:20;21.70;97.90
16243;DHT22;11719;51.052;6.982;2023-06-14T11:02:03;21.70;97.60
16243;DHT22;11719;51.052;6.982;2023-06-14T11:04:50;21.80;97.50
16243;DHT22;11719;51.052;6.982;2023-06-14T11:12:59;21.70;97.60
16243;DHT22;11719;51.052;6.982;2023-06-14T11:15:33;21.60;97.90
16243;DHT22;11719;51.052;6.982;2023-06-14T11:18:05;21.70;97.80
16243;DHT22;11719;51.052;6.982;2023-06-14T11:20:33;21.70;97.80
16243;DHT22;11719;51.052;6.982;2023-06-14T11:23:01;21.60;98.10
16243;DHT22;11719;51.052;6.982;2023-06-14T11:25:28;21.60;98.30
16243;DHT22;11719;51.052;6.982;2023-06-14T11:27:54;21.40;98.20
16243;DHT22;11719;51.052;6.982;2023-06-14T11:30:21;21.50;98.10
16243;DHT22;11719;51.052;6.982;2023-06-14T11:32:48;21.60;97.80
16243;DHT22;11719;51.052;6.982;2023-06-14T11:35:16;22.00;94.00
16243;DHT22;11719;51.052;6.982;2023-06-14T11:37:42;22.70;92.20
16243;DHT22;11719;51.052;6.982;2023-06-14T11:40:11;23.00;93.60
16243;DHT22;11719;51.052;6.982;2023-06-14T11:42:39;22.80;94.60
16243;DHT22;11719;51.052;6.982;2023-06-14T11:45:10;22.30;96.00
16243;DHT22;11719;51.052;6.982;2023-06-14T11:47:38;22.00;96.90
16243;DHT22;11719;51.052;6.982;2023-06-14T11:50:06;21.70;97.30
16243;DHT22;11719;51.052;6.982;2023-06-14T11:52:39;21.60;97.80
16243;DHT22;11719;51.052;6.982;2023-06-14T11:55:06;21.50;97.90
16243;DHT22;11719;51.052;6.982;2023-06-14T11:57:35;21.50;97.80
16243;DHT22;11719;51.052;6.982;2023-06-14T12:00:06;21.50;97.80
16243;DHT22;11719;51.052;6.982;2023-06-14T12:02:37;21.60;97.50
16243;DHT22;11719;51.052;6.982;2023-06-14T12:05:06;21.50;97.90
16243;DHT22;11719;51.052;6.982;2023-06-14T12:07:39;21.50;97.80
16243;DHT22;11719;51.052;6.982;2023-06-14T12:10:08;21.70;93.50
16243;DHT22;11719;51.052;6.982;2023-06-14T12:12:37;21.80;97.10
16243;DHT22;11719;51.052;6.982;2023-06-14T12:15:05;21.80;97.00
16243;DHT22;11719;51.052;6.982;2023-06-14T12:17:34;21.80;96.80
16243;DHT22;11719;51.052;6.982;2023-06-14T12:20:12;21.70;97.70
16243;DHT22;11719;51.052;6.982;2023-06-14T12:22:55;21.70;97.60
16243;DHT22;11719;51.052;6.982;2023-06-14T12:25:27;21.60;97.80
16243;DHT22;11719;51.052;6.982;2023-06-14T12:27:58;21.50;97.60
16243;DHT22;11719;51.052;6.982;2023-06-14T12:30:25;21.50;97.80
16243;DHT22;11719;51.052;6.982;2023-06-14T12:32:51;21.40;97.90
16243;DHT22;11719;51.052;6.982;2023-06-14T12:35:17;21.50;97.90
16243;DHT22;11719;51.052;6.982;2023-06-14T12:37:47;21.50;97.80
16243;DHT22;11719;51.052;6.982;2023-06-14T12:40:13;21.70;97.40
16243;DHT22;11719;51.052;6.982;2023-06-14T12:42:40;21.70;97.40
16243;DHT22;11719;51.052;6.982;2023-06-14T12:45:06;21.70;97.60
16243;DHT22;11719;51.052;6.982;2023-06-14T12:47:32;21.60;97.20
16243;DHT22;11719;51.052;6.982;2023-06-14T12:49:58;21.70;96.70
16243;DHT22;11719;51.052;6.982;2023-06-14T12:52:24;21.70;97.10
16243;DHT22;11719;51.052;6.982;2023-06-14T12:54:50;21.80;97.20
16243;DHT22;11719;51.052;6.982;2023-06-14T12:57:15;21.80;97.00
16243;DHT22;11719;51.052;6.982;2023-06-14T12:59:41;21.80;96.60
16243;DHT22;11719;51.052;6.982;2023-06-14T13:02:15;21.60;97.00
16243;DHT22;11719;51.052;6.982;2023-06-14T13:04:42;21.50;96.90
16243;DHT22;11719;51.052;6.982;2023-06-14T13:07:08;21.70;97.00
16243;DHT22;11719;51.052;6.982;2023-06-14T13:09:36;21.50;96.80
16243;DHT22;11719;51.052;6.982;2023-06-14T13:12:02;21.60;96.60
16243;DHT22;11719;51.052;6.982;2023-06-14T13:14:28;21.70;96.50
16243;DHT22;11719;51.052;6.982;2023-06-14T13:16:54;21.70;97.10
16243;DHT22;11719;51.052;6.982;2023-06-14T13:19:21;21.70;96.50
16243;DHT22;11719;51.052;6.982;2023-06-14T13:21:47;21.60;97.10
16243;DHT22;11719;51.052;6.982;2023-06-14T13:24:13;21.60;96.70
16243;DHT22;11719;51.052;6.982;2023-06-14T13:26:39;21.60;97.10
16243;DHT22;11719;51.052;6.982;2023-06-14T13:29:05;21.50;97.20
16243;DHT22;11719;51.052;6.982;2023-06-14T13:31:31;21.50;97.10
16243;DHT22;11719;51.052;6.982;2023-06-14T13:33:56;21.40;97.20
16243;DHT22;11719;51.052;6.982;2023-06-14T13:36:22;21.40;97.80
16243;DHT22;11719;51.052;6.982;2023-06-14T13:38:48;21.50;97.20
16243;DHT22;11719;51.052;6.982;2023-06-14T13:41:14;21.50;96.80
16243;DHT22;11719;51.052;6.982;2023-06-14T13:43:40;21.60;97.30
16243;DHT22;11719;51.052;6.982;2023-06-14T13:46:06;21.60;97.20
16243;DHT22;11719;51.052;6.982;2023-06-14T13:48:31;21.60;97.50
16243;DHT22;11719;51.052;6.982;2023-06-14T13:50:59;21.60;97.20
16243;DHT22;11719;51.052;6.982;2023-06-14T13:53:25;21.50;97.50
16243;DHT22;11719;51.052;6.982;2023-06-14T13:55:51;21.70;96.40
16243;DHT22;11719;51.052;6.982;2023-06-14T13:58:18;21.70;96.90
16243;DHT22;11719;51.052;6.982;2023-06-14T14:00:44;21.60;97.50
16243;DHT22;11719;51.052;6.982;2023-06-14T14:03:10;21.40;97.20
16243;DHT22;11719;51.052;6.982;2023-06-14T14:05:36;21.40;97.50
16243;DHT22;11719;51.052;6.982;2023-06-14T14:08:02;21.40;97.30
16243;DHT22;11719;51.052;6.982;2023-06-14T14:10:29;21.40;97.40
16243;DHT22;11719;51.052;6.982;2023-06-14T14:12:55;21.40;97.40
16243;DHT22;11719;51.052;6.982;2023-06-14T14:15:22;21.40;97.30
16243;DHT22;11719;51.052;6.982;2023-06-14T14:17:48;21.40;97.20
16243;DHT22;11719;51.052;6.982;2023-06-14T14:20:14;21.40;97.10
16243;DHT22;11719;51.052;6.982;2023-06-14T14:22:43;21.40;96.70
16243;DHT22;11719;51.052;6.982;2023-06-14T14:25:10;21.40;97.10
16243;DHT22;11719;51.052;6.982;2023-06-14T14:27:36;21.30;96.60
16243;DHT22;11719;51.052;6.982;2023-06-14T14:30:06;21.40;97.10
16243;DHT22;11719;51.052;6.982;2023-06-14T14:32:32;21.40;97.00
16243;DHT22;11719;51.052;6.982;2023-06-14T14:34:58;21.30;97.20
16243;DHT22;11719;51.052;6.982;2023-06-14T14:37:24;21.40;96.90
16243;DHT22;11719;51.052;6.982;2023-06-14T14:39:50;21.50;96.80
16243;DHT22;11719;51.052;6.982;2023-06-14T14:42:15;21.50;97.00
16243;DHT22;11719;51.052;6.982;2023-06-14T14:44:42;21.50;97.10
16243;DHT22;11719;51.052;6.982;2023-06-14T14:47:07;21.40;97.20
16243;DHT22;11719;51.052;6.982;2023-06-14T14:49:33;21.50;96.80
16243;DHT22;11719;51.052;6.982;2023-06-14T14:51:59;21.40;96.90
16243;DHT22;11719;51.052;6.982;2023-06-14T14:54:25;21.60;96.70
16243;DHT22;11719;51.052;6.982;2023-06-14T14:56:51;21.60;96.60
16243;DHT22;11719;51.052;6.982;2023-06-14T14:59:17;21.60;96.70
16243;DHT22;11719;51.052;6.982;2023-06-14T15:01:44;21.40;96.80
16243;DHT22;11719;51.052;6.982;2023-06-14T15:04:10;21.50;96.70
16243;DHT22;11719;51.052;6.982;2023-06-14T15:06:37;21.40;96.70
16243;DHT22;11719;51.052;6.982;2023-06-14T15:09:05;21.40;96.60
16243;DHT22;11719;51.052;6.982;2023-06-14T15:11:31;21.40;96.90
16243;DHT22;11719;51.052;6.982;2023-06-14T15:13:57;21.50;96.50
16243;DHT22;11719;51.052;6.982;2023-06-14T15:16:23;21.50;96.70
16243;DHT22;11719;51.052;6.982;2023-06-14T15:18:49;21.50;96.70
16243;DHT22;11719;51.052;6.982;2023-06-14T15:23:49;21.70;96.70
16243;DHT22;11719;51.052;6.982;2023-06-14T15:26:16;21.60;96.90
16243;DHT22;11719;51.052;6.982;2023-06-14T15:28:42;21.70;95.70
16243;DHT22;11719;51.052;6.982;2023-06-14T15:31:07;21.70;96.40
16243;DHT22;11719;51.052;6.982;2023-06-14T15:33:33;21.60;96.60
16243;DHT22;11719;51.052;6.982;2023-06-14T15:35:59;21.60;96.70
16243;DHT22;11719;51.052;6.982;2023-06-14T15:38:25;21.40;96.70
16243;DHT22;11719;51.052;6.982;2023-06-14T15:40:50;21.50;96.80
16243;DHT22;11719;51.052;6.982;2023-06-14T15:43:16;21.50;96.80
16243;DHT22;11719;51.052;6.982;2023-06-14T15:45:42;21.60;96.50
16243;DHT22;11719;51.052;6.982;2023-06-14T15:48:09;21.70;96.40
16243;DHT22;11719;51.052;6.982;2023-06-14T15:50:35;21.70;96.60